Terminal Aerodrome Forecast
Issued by NWS Jackson, MS

Home | Current Version | Previous Version | Text Only | Print | Product List | Glossary On
Versions: 1 2 3 4 5 6 7 8 9 10 11 12 13 14 15
843
FTUS44 KMEG 222320
TAFTUP
TAF
KTUP 222320Z 2300/2324 16010KT P6SM -SHRA SCT012 OVC025
     FM230900 32005KT 5SM BR BKN005 OVC012
     FM231600 31008KT P6SM FEW015 BKN020
     FM232000 35007KT P6SM SKC=

USA.gov is the U.S. government's official web portal to all federal, state and local government web resources and services.